sensor_id;sensor_type;location;lat;lon;timestamp;pressure;altitude;pressure_sealevel;temperature;humidity
22930;BME280;11630;42.660;23.292;2024-02-26T00:02:16;68496.13;;;8.64;100.00
22930;BME280;11630;42.660;23.292;2024-02-26T00:04:46;68514.08;;;8.86;100.00
22930;BME280;11630;42.660;23.292;2024-02-26T00:07:17;68514.91;;;8.88;100.00
22930;BME280;11630;42.660;23.292;2024-02-26T00:09:48;68537.97;;;9.05;100.00
22930;BME280;11630;42.660;23.292;2024-02-26T00:12:19;68547.72;;;9.07;100.00
22930;BME280;11630;42.660;23.292;2024-02-26T00:14:50;68529.56;;;9.04;100.00
22930;BME280;11630;42.660;23.292;2024-02-26T00:17:21;68508.36;;;8.79;100.00
22930;BME280;11630;42.660;23.292;2024-02-26T00:19:52;68528.72;;;8.94;100.00
22930;BME280;11630;42.660;23.292;2024-02-26T00:22:23;68534.71;;;9.05;100.00
22930;BME280;11630;42.660;23.292;2024-02-26T00:24:54;68533.63;;;9.04;100.00
22930;BME280;11630;42.660;23.292;2024-02-26T00:27:27;68507.01;;;8.77;100.00
22930;BME280;11630;42.660;23.292;2024-02-26T00:29:58;68502.11;;;8.72;100.00
22930;BME280;11630;42.660;23.292;2024-02-26T00:32:29;68503.47;;;8.75;100.00
22930;BME280;11630;42.660;23.292;2024-02-26T00:34:59;68483.13;;;8.60;100.00
22930;BME280;11630;42.660;23.292;2024-02-26T00:37:30;68481.50;;;8.58;100.00
22930;BME280;11630;42.660;23.292;2024-02-26T00:40:05;68485.30;;;8.59;100.00
22930;BME280;11630;42.660;23.292;2024-02-26T00:42:32;68498.88;;;8.72;100.00
22930;BME280;11630;42.660;23.292;2024-02-26T00:45:03;68507.30;;;8.81;100.00
22930;BME280;11630;42.660;23.292;2024-02-26T00:47:34;68527.92;;;8.95;100.00
22930;BME280;11630;42.660;23.292;2024-02-26T00:50:11;68505.13;;;8.79;100.00
22930;BME280;11630;42.660;23.292;2024-02-26T00:52:38;68526.30;;;8.96;100.00
22930;BME280;11630;42.660;23.292;2024-02-26T00:55:09;68524.13;;;8.96;100.00
22930;BME280;11630;42.660;23.292;2024-02-26T00:57:40;68516.52;;;8.87;100.00
22930;BME280;11630;42.660;23.292;2024-02-26T01:00:11;68525.75;;;8.95;100.00
22930;BME280;11630;42.660;23.292;2024-02-26T01:02:43;68543.39;;;9.08;100.00
22930;BME280;11630;42.660;23.292;2024-02-26T01:05:14;68542.58;;;9.11;100.00
22930;BME280;11630;42.660;23.292;2024-02-26T01:07:44;68554.55;;;9.26;100.00
22930;BME280;11630;42.660;23.292;2024-02-26T01:10:14;68592.30;;;9.47;100.00
22930;BME280;11630;42.660;23.292;2024-02-26T01:12:46;68589.59;;;9.52;100.00
22930;BME280;11630;42.660;23.292;2024-02-26T01:15:17;68600.44;;;9.60;100.00
22930;BME280;11630;42.660;23.292;2024-02-26T01:17:51;68610.78;;;9.69;100.00
22930;BME280;11630;42.660;23.292;2024-02-26T01:20:23;68607.79;;;9.70;100.00
22930;BME280;11630;42.660;23.292;2024-02-26T01:22:54;68611.88;;;9.73;100.00
22930;BME280;11630;42.660;23.292;2024-02-26T01:25:25;68611.88;;;9.75;100.00
22930;BME280;11630;42.660;23.292;2024-02-26T01:27:55;68614.03;;;9.72;100.00
22930;BME280;11630;42.660;23.292;2024-02-26T01:30:26;68576.56;;;9.45;100.00
22930;BME280;11630;42.660;23.292;2024-02-26T01:33:00;68558.62;;;9.29;100.00
22930;BME280;11630;42.660;23.292;2024-02-26T01:35:32;68553.46;;;9.25;100.00
22930;BME280;11630;42.660;23.292;2024-02-26T01:38:05;68549.92;;;9.18;100.00
22930;BME280;11630;42.660;23.292;2024-02-26T01:40:36;68569.74;;;9.30;100.00
22930;BME280;11630;42.660;23.292;2024-02-26T01:43:07;68585.80;;;9.51;100.00
22930;BME280;11630;42.660;23.292;2024-02-26T01:45:38;68580.89;;;9.44;100.00
22930;BME280;11630;42.660;23.292;2024-02-26T01:48:09;68570.84;;;9.31;100.00
22930;BME280;11630;42.660;23.292;2024-02-26T01:50:45;68561.06;;;9.27;100.00
22930;BME280;11630;42.660;23.292;2024-02-26T01:53:15;68581.98;;;9.48;100.00
22930;BME280;11630;42.660;23.292;2024-02-26T01:55:46;68598.02;;;9.61;100.00
22930;BME280;11630;42.660;23.292;2024-02-26T01:58:18;68603.98;;;9.64;100.00
22930;BME280;11630;42.660;23.292;2024-02-26T02:00:50;68605.38;;;9.72;100.00
22930;BME280;11630;42.660;23.292;2024-02-26T02:03:21;68611.88;;;9.75;100.00
22930;BME280;11630;42.660;23.292;2024-02-26T02:06:06;68609.44;;;9.74;100.00
22930;BME280;11630;42.660;23.292;2024-02-26T02:08:24;68593.41;;;9.63;100.00
22930;BME280;11630;42.660;23.292;2024-02-26T02:10:57;68588.77;;;9.53;100.00
22930;BME280;11630;42.660;23.292;2024-02-26T02:13:28;68574.65;;;9.42;100.00
22930;BME280;11630;42.660;23.292;2024-02-26T02:15:59;68574.11;;;9.39;100.00
22930;BME280;11630;42.660;23.292;2024-02-26T02:18:30;68574.11;;;9.39;100.00
22930;BME280;11630;42.660;23.292;2024-02-26T02:21:02;68576.53;;;9.38;100.00
22930;BME280;11630;42.660;23.292;2024-02-26T02:23:32;68589.59;;;9.55;100.00
22930;BME280;11630;42.660;23.292;2024-02-26T02:26:03;68601.53;;;9.63;100.00
22930;BME280;11630;42.660;23.292;2024-02-26T02:28:34;68596.12;;;9.63;100.00
22930;BME280;11630;42.660;23.292;2024-02-26T02:31:04;68618.11;;;9.77;100.00
22930;BME280;11630;42.660;23.292;2024-02-26T02:33:35;68628.45;;;9.84;100.00
22930;BME280;11630;42.660;23.292;2024-02-26T02:36:06;68589.86;;;9.56;100.00
22930;BME280;11630;42.660;23.292;2024-02-26T02:38:37;68622.20;;;9.82;100.00
22930;BME280;11630;42.660;23.292;2024-02-26T02:41:08;68612.69;;;9.77;100.00
22930;BME280;11630;42.660;23.292;2024-02-26T02:43:39;68637.95;;;9.94;100.00
22930;BME280;11630;42.660;23.292;2024-02-26T02:46:10;68640.41;;;9.95;100.00
22930;BME280;11630;42.660;23.292;2024-02-26T02:48:43;68636.09;;;9.98;100.00
22930;BME280;11630;42.660;23.292;2024-02-26T02:51:13;68639.63;;;9.98;100.00
22930;BME280;11630;42.660;23.292;2024-02-26T02:53:43;68635.27;;;9.99;100.00
22930;BME280;11630;42.660;23.292;2024-02-26T02:56:14;68638.23;;;9.95;100.00
22930;BME280;11630;42.660;23.292;2024-02-26T02:58:45;68642.08;;;10.01;100.00
22930;BME280;11630;42.660;23.292;2024-02-26T03:01:17;68621.64;;;9.79;100.00
22930;BME280;11630;42.660;23.292;2024-02-26T03:03:51;68602.66;;;9.69;100.00
22930;BME280;11630;42.660;23.292;2024-02-26T03:06:21;68613.51;;;9.77;100.00
22930;BME280;11630;42.660;23.292;2024-02-26T03:08:54;68625.75;;;9.89;100.00
22930;BME280;11630;42.660;23.292;2024-02-26T03:11:24;68614.07;;;9.80;100.00
22930;BME280;11630;42.660;23.292;2024-02-26T03:13:55;68603.19;;;9.67;100.00
22930;BME280;11630;42.660;23.292;2024-02-26T03:16:26;68578.72;;;9.42;100.00
22930;BME280;11630;42.660;23.292;2024-02-26T03:18:56;68604.25;;;9.63;100.00
22930;BME280;11630;42.660;23.292;2024-02-26T03:21:28;68606.47;;;9.75;100.00
22930;BME280;11630;42.660;23.292;2024-02-26T03:23:58;68622.73;;;9.80;100.00
22930;BME280;11630;42.660;23.292;2024-02-26T03:26:29;68618.41;;;9.81;100.00
22930;BME280;11630;42.660;23.292;2024-02-26T03:29:00;68626.57;;;9.91;100.00
22930;BME280;11630;42.660;23.292;2024-02-26T03:31:32;68629.28;;;9.91;100.00
22930;BME280;11630;42.660;23.292;2024-02-26T03:34:02;68639.34;;;9.99;100.00
22930;BME280;11630;42.660;23.292;2024-02-26T03:36:32;68639.34;;;9.99;100.00
22930;BME280;11630;42.660;23.292;2024-02-26T03:39:02;68632.53;;;9.94;100.00
22930;BME280;11630;42.660;23.292;2024-02-26T03:41:33;68630.08;;;9.88;100.00
22930;BME280;11630;42.660;23.292;2024-02-26T03:44:05;68623.83;;;9.81;100.00
22930;BME280;11630;42.660;23.292;2024-02-26T03:46:38;68614.07;;;9.80;100.00
22930;BME280;11630;42.660;23.292;2024-02-26T03:49:08;68627.36;;;9.86;100.00
22930;BME280;11630;42.660;23.292;2024-02-26T03:51:39;68625.45;;;9.85;100.00
22930;BME280;11630;42.660;23.292;2024-02-26T03:54:09;68614.05;;;9.77;100.00
22930;BME280;11630;42.660;23.292;2024-02-26T03:56:40;68609.70;;;9.76;100.00
22930;BME280;11630;42.660;23.292;2024-02-26T03:59:14;68622.47;;;9.84;100.00
22930;BME280;11630;42.660;23.292;2024-02-26T04:01:47;68627.37;;;9.88;100.00
22930;BME280;11630;42.660;23.292;2024-02-26T04:04:18;68590.95;;;9.55;100.00
22930;BME280;11630;42.660;23.292;2024-02-26T04:06:49;68561.89;;;9.32;100.00
22930;BME280;11630;42.660;23.292;2024-02-26T04:09:20;68552.09;;;9.16;100.00
22930;BME280;11630;42.660;23.292;2024-02-26T04:11:51;68545.59;;;9.19;100.00
22930;BME280;11630;42.660;23.292;2024-02-26T04:14:22;68573.81;;;9.35;100.00
22930;BME280;11630;42.660;23.292;2024-02-26T04:16:53;68584.97;;;9.52;100.00
22930;BME280;11630;42.660;23.292;2024-02-26T04:19:25;68605.08;;;9.68;100.00
22930;BME280;11630;42.660;23.292;2024-02-26T04:21:56;68609.70;;;9.73;100.00
22930;BME280;11630;42.660;23.292;2024-02-26T04:24:27;68589.59;;;9.50;100.00
22930;BME280;11630;42.660;23.292;2024-02-26T04:27:00;68567.04;;;9.33;100.00
22930;BME280;11630;42.660;23.292;2024-02-26T04:29:47;68566.77;;;9.31;100.00
22930;BME280;11630;42.660;23.292;2024-02-26T04:32:24;68597.46;;;9.58;100.00
22930;BME280;11630;42.660;23.292;2024-02-26T04:35:06;68603.72;;;9.65;100.00
22930;BME280;11630;42.660;23.292;2024-02-26T04:37:37;68602.36;;;9.65;100.00
22930;BME280;11630;42.660;23.292;2024-02-26T04:40:09;68598.56;;;9.64;100.00
22930;BME280;11630;42.660;23.292;2024-02-26T04:42:41;68613.23;;;9.75;100.00
22930;BME280;11630;42.660;23.292;2024-02-26T04:45:12;68604.81;;;9.71;100.00
22930;BME280;11630;42.660;23.292;2024-02-26T04:47:43;68605.08;;;9.70;100.00
22930;BME280;11630;42.660;23.292;2024-02-26T04:50:13;68617.61;;;9.84;100.00
22930;BME280;11630;42.660;23.292;2024-02-26T04:52:46;68606.44;;;9.70;100.00
22930;BME280;11630;42.660;23.292;2024-02-26T04:55:17;68606.47;;;9.75;100.00
22930;BME280;11630;42.660;23.292;2024-02-26T04:57:48;68583.08;;;9.49;100.00
22930;BME280;11630;42.660;23.292;2024-02-26T05:00:19;68588.23;;;9.50;100.00
22930;BME280;11630;42.660;23.292;2024-02-26T05:02:50;68581.73;;;9.51;100.00
22930;BME280;11630;42.660;23.292;2024-02-26T05:05:21;68550.74;;;9.18;100.00
22930;BME280;11630;42.660;23.292;2024-02-26T05:07:52;68565.16;;;9.32;100.00
22930;BME280;11630;42.660;23.292;2024-02-26T05:10:23;68580.07;;;9.42;100.00
22930;BME280;11630;42.660;23.292;2024-02-26T05:12:54;68557.81;;;9.27;100.00
22930;BME280;11630;42.660;23.292;2024-02-26T05:15:27;68548.59;;;9.23;100.00
22930;BME280;11630;42.660;23.292;2024-02-26T05:17:58;68580.07;;;9.42;100.00
22930;BME280;11630;42.660;23.292;2024-02-26T05:20:28;68596.94;;;9.60;100.00
22930;BME280;11630;42.660;23.292;2024-02-26T05:22:59;68596.38;;;9.60;100.00
22930;BME280;11630;42.660;23.292;2024-02-26T05:25:30;68592.30;;;9.52;100.00
22930;BME280;11630;42.660;23.292;2024-02-26T05:28:00;68589.86;;;9.51;100.00
22930;BME280;11630;42.660;23.292;2024-02-26T05:30:32;68590.13;;;9.55;100.00
22930;BME280;11630;42.660;23.292;2024-02-26T05:33:03;68579.55;;;9.47;100.00
22930;BME280;11630;42.660;23.292;2024-02-26T05:35:34;68583.08;;;9.46;100.00
22930;BME280;11630;42.660;23.292;2024-02-26T05:38:05;68586.32;;;9.49;100.00
22930;BME280;11630;42.660;23.292;2024-02-26T05:40:36;68591.48;;;9.55;100.00
22930;BME280;11630;42.660;23.292;2024-02-26T05:43:07;68608.88;;;9.71;100.00
22930;BME280;11630;42.660;23.292;2024-02-26T05:45:38;68617.32;;;9.85;100.00
22930;BME280;11630;42.660;23.292;2024-02-26T05:48:09;68623.56;;;9.87;100.00
22930;BME280;11630;42.660;23.292;2024-02-26T05:50:40;68620.58;;;9.83;100.00
22930;BME280;11630;42.660;23.292;2024-02-26T05:53:11;68638.54;;;9.99;100.00
22930;BME280;11630;42.660;23.292;2024-02-26T05:55:41;68645.88;;;10.05;100.00
22930;BME280;11630;42.660;23.292;2024-02-26T05:58:12;68654.29;;;10.09;100.00
22930;BME280;11630;42.660;23.292;2024-02-26T06:00:43;68649.69;;;10.13;100.00
22930;BME280;11630;42.660;23.292;2024-02-26T06:03:14;68625.19;;;9.86;100.00
22930;BME280;11630;42.660;23.292;2024-02-26T06:05:48;68621.91;;;9.81;100.00
22930;BME280;11630;42.660;23.292;2024-02-26T06:08:19;68602.09;;;9.64;100.00
22930;BME280;11630;42.660;23.292;2024-02-26T06:10:51;68598.00;;;9.59;100.00
22930;BME280;11630;42.660;23.292;2024-02-26T06:13:22;68600.20;;;9.66;100.00
22930;BME280;11630;42.660;23.292;2024-02-26T06:15:54;68611.06;;;9.73;100.00
22930;BME280;11630;42.660;23.292;2024-02-26T06:18:25;68633.06;;;9.92;100.00
22930;BME280;11630;42.660;23.292;2024-02-26T06:20:56;68643.97;;;10.07;100.00
22930;BME280;11630;42.660;23.292;2024-02-26T06:23:26;68669.81;;;10.27;100.00
22930;BME280;11630;42.660;23.292;2024-02-26T06:25:56;68685.56;;;10.34;100.00
22930;BME280;11630;42.660;23.292;2024-02-26T06:28:29;68680.67;;;10.37;100.00
22930;BME280;11630;42.660;23.292;2024-02-26T06:31:00;68689.93;;;10.45;100.00
22930;BME280;11630;42.660;23.292;2024-02-26T06:33:31;68695.36;;;10.53;100.00
22930;BME280;11630;42.660;23.292;2024-02-26T06:36:02;68698.90;;;10.52;100.00
22930;BME280;11630;42.660;23.292;2024-02-26T06:38:33;68698.90;;;10.50;100.00
22930;BME280;11630;42.660;23.292;2024-02-26T06:41:06;68690.20;;;10.49;100.00
22930;BME280;11630;42.660;23.292;2024-02-26T06:43:37;68704.06;;;10.56;100.00
22930;BME280;11630;42.660;23.292;2024-02-26T06:46:08;68686.39;;;10.41;100.00
22930;BME280;11630;42.660;23.292;2024-02-26T06:48:40;68643.97;;;10.04;100.00
22930;BME280;11630;42.660;23.292;2024-02-26T06:51:10;68669.55;;;10.28;100.00
22930;BME280;11630;42.660;23.292;2024-02-26T06:53:41;68696.72;;;10.48;100.00
22930;BME280;11630;42.660;23.292;2024-02-26T06:56:12;68693.73;;;10.49;100.00
22930;BME280;11630;42.660;23.292;2024-02-26T06:58:43;68701.08;;;10.54;100.00
22930;BME280;11630;42.660;23.292;2024-02-26T07:01:13;68692.91;;;10.49;100.00
22930;BME280;11630;42.660;23.292;2024-02-26T07:03:44;68687.48;;;10.44;100.00
22930;BME280;11630;42.660;23.292;2024-02-26T07:06:15;68682.29;;;10.33;100.00
22930;BME280;11630;42.660;23.292;2024-02-26T07:08:46;68681.22;;;10.35;100.00
22930;BME280;11630;42.660;23.292;2024-02-26T07:11:17;68665.45;;;10.23;100.00
22930;BME280;11630;42.660;23.292;2024-02-26T07:13:48;68685.83;;;10.40;100.00
22930;BME280;11630;42.660;23.292;2024-02-26T07:16:18;68695.36;;;10.53;100.00
22930;BME280;11630;42.660;23.292;2024-02-26T07:18:49;68692.38;;;10.49;100.00
22930;BME280;11630;42.660;23.292;2024-02-26T07:21:20;68718.77;;;10.72;100.00
22930;BME280;11630;42.660;23.292;2024-02-26T07:23:51;68713.86;;;10.70;100.00
22930;BME280;11630;42.660;23.292;2024-02-26T07:26:22;68711.95;;;10.64;100.00
22930;BME280;11630;42.660;23.292;2024-02-26T07:28:53;68721.75;;;10.75;100.00
22930;BME280;11630;42.660;23.292;2024-02-26T07:31:24;68702.70;;;10.56;100.00
22930;BME280;11630;42.660;23.292;2024-02-26T07:33:57;68705.42;;;10.61;100.00
22930;BME280;11630;42.660;23.292;2024-02-26T07:36:28;68680.96;;;10.41;100.00
22930;BME280;11630;42.660;23.292;2024-02-26T07:38:59;68654.86;;;10.19;100.00
22930;BME280;11630;42.660;23.292;2024-02-26T07:41:29;68666.80;;;10.23;100.00
22930;BME280;11630;42.660;23.292;2024-02-26T07:43:59;68682.03;;;10.37;100.00
22930;BME280;11630;42.660;23.292;2024-02-26T07:46:31;68701.09;;;10.57;100.00
22930;BME280;11630;42.660;23.292;2024-02-26T07:49:02;68717.94;;;10.72;100.00
22930;BME280;11630;42.660;23.292;2024-02-26T07:51:33;68727.47;;;10.79;100.00
22930;BME280;11630;42.660;23.292;2024-02-26T07:54:03;68732.91;;;10.84;100.00
22930;BME280;11630;42.660;23.292;2024-02-26T07:56:34;68738.63;;;10.91;100.00
22930;BME280;11630;42.660;23.292;2024-02-26T07:59:05;68720.39;;;10.78;100.00
22930;BME280;11630;42.660;23.292;2024-02-26T08:01:37;68730.19;;;10.87;100.00
22930;BME280;11630;42.660;23.292;2024-02-26T08:04:08;68777.78;;;11.22;100.00
22930;BME280;11630;42.660;23.292;2024-02-26T08:06:38;68762.57;;;11.15;100.00
22930;BME280;11630;42.660;23.292;2024-02-26T08:09:10;68780.79;;;11.23;100.00
22930;BME280;11630;42.660;23.292;2024-02-26T08:11:40;68828.45;;;11.68;100.00
22930;BME280;11630;42.660;23.292;2024-02-26T08:14:10;68834.98;;;11.71;100.00
22930;BME280;11630;42.660;23.292;2024-02-26T08:16:41;68837.70;;;11.84;100.00
22930;BME280;11630;42.660;23.292;2024-02-26T08:19:12;68861.13;;;12.03;100.00
22930;BME280;11630;42.660;23.292;2024-02-26T08:21:43;68858.95;;;12.01;100.00
22930;BME280;11630;42.660;23.292;2024-02-26T08:24:14;68839.06;;;11.81;100.00
22930;BME280;11630;42.660;23.292;2024-02-26T08:26:45;68875.56;;;12.10;100.00
22930;BME280;11630;42.660;23.292;2024-02-26T08:29:16;68835.25;;;11.78;100.00
22930;BME280;11630;42.660;23.292;2024-02-26T08:31:46;68857.86;;;12.00;100.00
22930;BME280;11630;42.660;23.292;2024-02-26T08:34:17;68858.13;;;11.94;100.00
22930;BME280;11630;42.660;23.292;2024-02-26T08:36:49;68859.22;;;12.00;100.00
22930;BME280;11630;42.660;23.292;2024-02-26T08:39:19;68852.95;;;11.95;100.00
22930;BME280;11630;42.660;23.292;2024-02-26T08:41:50;68855.14;;;11.95;100.00
22930;BME280;11630;42.660;23.292;2024-02-26T08:44:22;68834.45;;;11.81;100.00
22930;BME280;11630;42.660;23.292;2024-02-26T08:46:53;68809.40;;;11.58;100.00
22930;BME280;11630;42.660;23.292;2024-02-26T08:49:23;68831.44;;;11.69;100.00
22930;BME280;11630;42.660;23.292;2024-02-26T08:51:54;68885.91;;;12.17;100.00
22930;BME280;11630;42.660;23.292;2024-02-26T08:54:25;68909.88;;;12.43;100.00
22930;BME280;11630;42.660;23.292;2024-02-26T08:56:57;68933.05;;;12.68;100.00
22930;BME280;11630;42.660;23.292;2024-02-26T08:59:27;68908.25;;;12.44;100.00
22930;BME280;11630;42.660;23.292;2024-02-26T09:01:57;68908.25;;;12.44;100.00
22930;BME280;11630;42.660;23.292;2024-02-26T09:04:27;68941.23;;;12.78;100.00
22930;BME280;11630;42.660;23.292;2024-02-26T09:06:59;68952.14;;;12.88;100.00
22930;BME280;11630;42.660;23.292;2024-02-26T09:09:29;68988.94;;;13.18;100.00
22930;BME280;11630;42.660;23.292;2024-02-26T09:12:00;68964.95;;;12.94;100.00
22930;BME280;11630;42.660;23.292;2024-02-26T09:14:30;68992.75;;;13.19;100.00
22930;BME280;11630;42.660;23.292;2024-02-26T09:17:01;69002.58;;;13.28;100.00
22930;BME280;11630;42.660;23.292;2024-02-26T09:19:32;68988.67;;;13.11;100.00
22930;BME280;11630;42.660;23.292;2024-02-26T09:22:03;68979.13;;;13.04;100.00
22930;BME280;11630;42.660;23.292;2024-02-26T09:24:34;69022.76;;;13.41;100.00
22930;BME280;11630;42.660;23.292;2024-02-26T09:27:04;69022.48;;;13.47;100.00
22930;BME280;11630;42.660;23.292;2024-02-26T09:29:35;68981.57;;;13.10;100.00
22930;BME280;11630;42.660;23.292;2024-02-26T09:32:07;69010.20;;;13.40;100.00
22930;BME280;11630;42.660;23.292;2024-02-26T09:34:41;69040.75;;;13.58;100.00
22930;BME280;11630;42.660;23.292;2024-02-26T09:37:12;69048.66;;;13.66;100.00
22930;BME280;11630;42.660;23.292;2024-02-26T09:39:43;69069.13;;;13.88;100.00
22930;BME280;11630;42.660;23.292;2024-02-26T09:42:13;69076.48;;;13.96;100.00
22930;BME280;11630;42.660;23.292;2024-02-26T09:44:45;69070.74;;;13.82;100.00
22930;BME280;11630;42.660;23.292;2024-02-26T09:47:16;69104.61;;;14.18;100.00
22930;BME280;11630;42.660;23.292;2024-02-26T09:49:47;69095.60;;;14.14;100.00
22930;BME280;11630;42.660;23.292;2024-02-26T09:52:20;69113.07;;;14.30;100.00
22930;BME280;11630;42.660;23.292;2024-02-26T09:54:51;69100.77;;;14.22;100.00
22930;BME280;11630;42.660;23.292;2024-02-26T09:57:21;69082.48;;;13.99;100.00
22930;BME280;11630;42.660;23.292;2024-02-26T09:59:53;69092.84;;;14.09;100.00
22930;BME280;11630;42.660;23.292;2024-02-26T10:02:24;69104.32;;;14.19;100.00
22930;BME280;11630;42.660;23.292;2024-02-26T10:04:56;69104.32;;;14.19;100.00
22930;BME280;11630;42.660;23.292;2024-02-26T10:07:28;69086.02;;;14.06;100.00
22930;BME280;11630;42.660;23.292;2024-02-26T10:09:59;69098.59;;;14.15;100.00
22930;BME280;11630;42.660;23.292;2024-02-26T10:12:31;69091.48;;;14.09;100.00
22930;BME280;11630;42.660;23.292;2024-02-26T10:15:01;69140.08;;;14.53;100.00
22930;BME280;11630;42.660;23.292;2024-02-26T10:17:32;69129.16;;;14.43;100.00
22930;BME280;11630;42.660;23.292;2024-02-26T10:20:13;69141.18;;;14.52;100.00
22930;BME280;11630;42.660;23.292;2024-02-26T10:22:45;69153.45;;;14.64;100.00
22930;BME280;11630;42.660;23.292;2024-02-26T10:25:16;69122.88;;;14.36;100.00
22930;BME280;11630;42.660;23.292;2024-02-26T10:27:48;69121.23;;;14.40;100.00
22930;BME280;11630;42.660;23.292;2024-02-26T10:30:20;69160.81;;;14.72;100.00
22930;BME280;11630;42.660;23.292;2024-02-26T10:32:52;69160.02;;;14.70;100.00
22930;BME280;11630;42.660;23.292;2024-02-26T10:35:23;69154.55;;;14.62;100.00
22930;BME280;11630;42.660;23.292;2024-02-26T10:37:53;69183.48;;;14.89;100.00
22930;BME280;11630;42.660;23.292;2024-02-26T10:40:24;69147.98;;;14.64;100.00
22930;BME280;11630;42.660;23.292;2024-02-26T10:42:54;69188.95;;;14.99;98.46
22930;BME280;11630;42.660;23.292;2024-02-26T10:45:26;69182.67;;;14.92;98.72
22930;BME280;11630;42.660;23.292;2024-02-26T10:47:57;69190.30;;;15.04;98.75
22930;BME280;11630;42.660;23.292;2024-02-26T10:50:28;69202.07;;;15.03;97.25
22930;BME280;11630;42.660;23.292;2024-02-26T10:53:00;69219.26;;;15.20;94.70
22930;BME280;11630;42.660;23.292;2024-02-26T10:55:31;69172.84;;;14.83;92.47
22930;BME280;11630;42.660;23.292;2024-02-26T10:58:03;69188.67;;;14.95;92.83
22930;BME280;11630;42.660;23.292;2024-02-26T11:00:33;69193.33;;;14.95;93.28
22930;BME280;11630;42.660;23.292;2024-02-26T11:03:06;69168.75;;;14.80;94.00
22930;BME280;11630;42.660;23.292;2024-02-26T11:05:39;69170.11;;;14.83;93.26
22930;BME280;11630;42.660;23.292;2024-02-26T11:08:11;69179.93;;;14.87;93.28
22930;BME280;11630;42.660;23.292;2024-02-26T11:10:43;69169.81;;;14.89;92.89
22930;BME280;11630;42.660;23.292;2024-02-26T11:13:15;69140.89;;;14.53;95.27
22930;BME280;11630;42.660;23.292;2024-02-26T11:15:49;69140.91;;;14.55;97.55
22930;BME280;11630;42.660;23.292;2024-02-26T11:18:21;69158.92;;;14.69;93.61
22930;BME280;11630;42.660;23.292;2024-02-26T11:20:54;69144.72;;;14.54;93.03
22930;BME280;11630;42.660;23.292;2024-02-26T11:23:26;69158.36;;;14.71;91.12
22930;BME280;11630;42.660;23.292;2024-02-26T11:25:58;69147.18;;;14.62;92.46
22930;BME280;11630;42.660;23.292;2024-02-26T11:28:29;69184.59;;;14.85;90.91
22930;BME280;11630;42.660;23.292;2024-02-26T11:31:02;69173.92;;;14.79;92.14
22930;BME280;11630;42.660;23.292;2024-02-26T11:33:34;69156.19;;;14.69;91.91
22930;BME280;11630;42.660;23.292;2024-02-26T11:36:12;69180.20;;;14.96;90.44
22930;BME280;11630;42.660;23.292;2024-02-26T11:38:41;69180.20;;;14.93;90.15
22930;BME280;11630;42.660;23.292;2024-02-26T11:41:12;69165.48;;;14.72;91.60
22930;BME280;11630;42.660;23.292;2024-02-26T11:44:00;69160.02;;;14.70;93.97
22930;BME280;11630;42.660;23.292;2024-02-26T11:46:33;69163.27;;;14.75;92.60
22930;BME280;11630;42.660;23.292;2024-02-26T11:51:56;69166.84;;;14.70;92.85
22930;BME280;11630;42.660;23.292;2024-02-26T11:54:52;69172.58;;;14.74;93.19
22930;BME280;11630;42.660;23.292;2024-02-26T11:57:41;69169.57;;;14.75;92.09
22930;BME280;11630;42.660;23.292;2024-02-26T12:00:12;69169.55;;;14.80;90.53
22930;BME280;11630;42.660;23.292;2024-02-26T12:02:47;69214.63;;;15.20;88.23
22930;BME280;11630;42.660;23.292;2024-02-26T12:05:21;69217.63;;;15.31;87.12
22930;BME280;11630;42.660;23.292;2024-02-26T12:08:04;69216.82;;;15.12;85.40
22930;BME280;11630;42.660;23.292;2024-02-26T12:10:40;69246.58;;;15.52;80.53
22930;BME280;11630;42.660;23.292;2024-02-26T12:13:14;69233.20;;;15.34;80.04
22930;BME280;11630;42.660;23.292;2024-02-26T12:15:56;69244.70;;;15.44;80.33
22930;BME280;11630;42.660;23.292;2024-02-26T12:18:18;69243.59;;;15.38;79.37
22930;BME280;11630;42.660;23.292;2024-02-26T12:21:09;69214.34;;;15.21;80.12
22930;BME280;11630;42.660;23.292;2024-02-26T12:23:19;69208.05;;;15.19;81.55
22930;BME280;11630;42.660;23.292;2024-02-26T12:25:49;69242.23;;;15.38;79.23
22930;BME280;11630;42.660;23.292;2024-02-26T12:28:21;69244.70;;;15.44;77.90
22930;BME280;11630;42.660;23.292;2024-02-26T12:30:52;69216.80;;;15.17;80.59
22930;BME280;11630;42.660;23.292;2024-02-26T12:33:23;69226.94;;;15.30;79.02
22930;BME280;11630;42.660;23.292;2024-02-26T12:35:55;69223.36;;;15.23;80.27
22930;BME280;11630;42.660;23.292;2024-02-26T12:38:28;69232.67;;;15.34;80.14
22930;BME280;11630;42.660;23.292;2024-02-26T12:40:59;69302.05;;;16.02;76.17
22930;BME280;11630;42.660;23.292;2024-02-26T12:43:33;69323.63;;;16.22;71.49
22930;BME280;11630;42.660;23.292;2024-02-26T12:46:05;69291.12;;;15.89;73.20
22930;BME280;11630;42.660;23.292;2024-02-26T12:48:36;69317.92;;;16.06;71.96
22930;BME280;11630;42.660;23.292;2024-02-26T12:51:08;69351.55;;;16.45;70.64
22930;BME280;11630;42.660;23.292;2024-02-26T12:53:40;69344.98;;;16.39;70.44
22930;BME280;11630;42.660;23.292;2024-02-26T12:56:11;69365.49;;;16.57;69.31
22930;BME280;11630;42.660;23.292;2024-02-26T12:58:43;69373.42;;;16.68;66.94
22930;BME280;11630;42.660;23.292;2024-02-26T13:01:19;69356.74;;;16.54;66.80
22930;BME280;11630;42.660;23.292;2024-02-26T13:03:50;69288.11;;;15.90;69.20
22930;BME280;11630;42.660;23.292;2024-02-26T13:06:21;69284.56;;;15.91;69.42
22930;BME280;11630;42.660;23.292;2024-02-26T13:08:56;69313.80;;;16.09;67.59
22930;BME280;11630;42.660;23.292;2024-02-26T13:11:25;69335.70;;;16.21;66.56